Aledo, Illinois
Current Conditions -  °F | °C
As of 10:52 AM on Friday 31 Oct 2014 (Local Time) from KMLI Reporting Station
Few Clouds Few Clouds  
Wind Chill: 31°   Ceiling: Unl
Heat Index: 40°   Visibility: 10mi
Dew Point: 22°   Wind: 17mph
Humidity: 49%   Direction: 350°N
Pressure: 30.33"   Gusts: 26mph
Location:  41.2°N, 90.75°W
Report Text: KMLI 311552Z 35015G23KT 10SM FEW038 04/M06 A3033 RMK AO2 SLP273 T00441056 $
Loading
Personal Weather Stations






























Interactive Weather Map New forecast layout! Learn more

10-Day Weather Forecast

Advertisements
Track Severe Weather on mobile